Time;durP1;ratioP1;P1;durP2;ratioP2;P2;SDS_P1;SDS_P2;PMS_P1;PMS_P2;Temp;Humidity;BMP_temperature;BMP_pressure;BME280_temperature;BME280_humidity;BME280_pressure;Samples;Min_cycle;Max_cycle;Signal;HPM_P1;HPM_P2
2022/09/07 00:01:55;;;;;;;;;;;;;;;;;;5138029;27;19919;-81
2022/09/07 00:04:20;;;;;;;;;;;;;;;;;;5138140;27;19972;-81
2022/09/07 00:06:45;;;;;;;;;;;;;;;;;;5119770;27;19922;-82
2022/09/07 00:09:11;;;;;;;;;;;;;;;;;;5102504;27;20001;-82
2022/09/07 00:11:36;;;;;;;;;;;;;;;;;;5137960;27;20318;-81
2022/09/07 00:14:01;;;;;;;;;;;;;;;;;;5138166;27;19916;-81
2022/09/07 00:16:27;;;;;;;;;;;;;;;;;;5119323;27;19987;-81
2022/09/07 00:18:54;;;;;;;;;;;;;;;;;;5119577;27;19916;-81
2022/09/07 00:21:19;;;;;;;;;;;;;;;;;;5119966;27;19927;-81
2022/09/07 00:23:45;;;;;;;;;;;;;;;;;;5118377;27;19911;-82
2022/09/07 00:26:21;;;;;;;;;;;;;;;;;;5119305;27;19916;-80
2022/09/07 00:28:47;;;;;;;;;;;;;;;;;;5137568;27;19915;-81
2022/09/07 00:31:13;;;;;;;;;;;;;;;;;;5119421;27;19919;-81
2022/09/07 00:33:38;;;;;;;;;;;;;;;;;;5119202;27;19916;-82
2022/09/07 00:36:04;;;;;;;;;;;;;;;;;;5137440;27;20002;-81
2022/09/07 00:38:29;;;;;;;;;;;;;;;;;;5118988;27;19988;-81
2022/09/07 00:40:54;;;;;;;;;;;;;;;;;;5137340;27;19922;-81
2022/09/07 00:43:30;;;;;;;;;;;;;;;;;;5118537;27;19916;-82
2022/09/07 00:45:56;;;;;;;;;;;;;;;;;;5118907;27;20283;-81
2022/09/07 00:48:21;;;;;;;;;;;;;;;;;;5137440;27;19915;-80
2022/09/07 00:50:48;;;;;;;;;;;;;;;;;;5118806;27;19916;-81
2022/09/07 00:53:18;;;;;;;;;;;;;;;;;;5137140;27;19919;-81
2022/09/07 00:55:43;;;;;;;;;;;;;;;;;;5118714;27;19915;-81
2022/09/07 00:58:08;;;;;;;;;;;;;;;;;;5118338;27;19921;-81
2022/09/07 01:00:34;;;;;;;;;;;;;;;;;;5136721;27;19951;-81
2022/09/07 01:02:59;;;;;;;;;;;;;;;;;;5136871;27;19974;-81
2022/09/07 01:05:24;;;;;;;;;;;;;;;;;;5118488;27;20546;-81
2022/09/07 01:07:50;;;;;;;;;;;;;;;;;;5137041;27;19923;-81
2022/09/07 01:10:15;;;;;;;;;;;;;;;;;;5118467;27;20336;-82
2022/09/07 01:12:40;;;;;;;;;;;;;;;;;;5118074;27;19915;-82
2022/09/07 01:15:06;;;;;;;;;;;;;;;;;;5136511;27;20293;-81
2022/09/07 01:17:31;;;;;;;;;;;;;;;;;;5137008;27;19919;-82
2022/09/07 01:20:00;;;;;;;;;;;;;;;;;;5136470;27;19916;-81
2022/09/07 01:22:28;;;;;;;;;;;;;;;;;;5136465;27;20070;-82
2022/09/07 01:25:05;;;;;;;;;;;;;;;;;;5136447;27;19920;-81
2022/09/07 01:27:49;;;;;;;;;;;;;;;;;;5136125;27;19922;-81
2022/09/07 01:30:15;;;;;;;;;;;;;;;;;;5118166;27;20317;-81
2022/09/07 01:32:53;;;;;;;;;;;;;;;;;;5118078;27;19915;-81
2022/09/07 01:35:24;;;;;;;;;;;;;;;;;;5136192;27;19922;-80
2022/09/07 01:37:54;;;;;;;;;;;;;;;;;;5136178;27;19922;-82
2022/09/07 01:40:30;;;;;;;;;;;;;;;;;;5117812;27;20010;-81
2022/09/07 01:42:59;;;;;;;;;;;;;;;;;;5117680;27;19994;-81
2022/09/07 01:45:24;;;;;;;;;;;;;;;;;;5117713;27;20006;-82
2022/09/07 01:47:54;;;;;;;;;;;;;;;;;;5117668;27;19951;-81
2022/09/07 01:50:20;;;;;;;;;;;;;;;;;;5136275;27;19955;-81
2022/09/07 01:52:47;;;;;;;;;;;;;;;;;;5117638;27;19919;-80
2022/09/07 01:55:22;;;;;;;;;;;;;;;;;;5117959;27;20297;-81
2022/09/07 01:57:59;;;;;;;;;;;;;;;;;;5135566;27;19915;-81
2022/09/07 02:00:24;;;;;;;;;;;;;;;;;;5136061;27;19915;-81
2022/09/07 02:02:50;;;;;;;;;;;;;;;;;;5135704;27;19942;-81
2022/09/07 02:05:15;;;;;;;;;;;;;;;;;;5118496;27;20290;-81
2022/09/07 02:07:51;;;;;;;;;;;;;;;;;;5136301;27;20324;-80
2022/09/07 02:10:19;;;;;;;;;;;;;;;;;;5117228;27;20075;-81
2022/09/07 02:12:47;;;;;;;;;;;;;;;;;;5136208;27;19915;-81
2022/09/07 02:15:13;;;;;;;;;;;;;;;;;;5118162;27;19916;-81
2022/09/07 02:17:42;;;;;;;;;;;;;;;;;;5136014;27;19923;-81
2022/09/07 02:20:11;;;;;;;;;;;;;;;;;;5117382;28;19916;-82
2022/09/07 02:22:38;;;;;;;;;;;;;;;;;;5117885;27;20221;-81
2022/09/07 02:25:03;;;;;;;;;;;;;;;;;;5117200;28;20297;-81
2022/09/07 02:27:33;;;;;;;;;;;;;;;;;;5117225;28;19920;-81
2022/09/07 02:29:58;;;;;;;;;;;;;;;;;;5117404;28;19926;-81
2022/09/07 02:32:24;;;;;;;;;;;;;;;;;;5135618;28;20010;-81
2022/09/07 02:34:49;;;;;;;;;;;;;;;;;;5117272;28;20707;-81
2022/09/07 02:37:14;;;;;;;;;;;;;;;;;;5135505;28;19916;-81
2022/09/07 02:39:40;;;;;;;;;;;;;;;;;;5116873;28;19919;-81
2022/09/07 02:42:05;;;;;;;;;;;;;;;;;;5117444;28;19915;-82
2022/09/07 02:44:33;;;;;;;;;;;;;;;;;;5117362;28;19915;-81
2022/09/07 02:47:17;;;;;;;;;;;;;;;;;;5136242;27;20060;-82
2022/09/07 02:49:51;;;;;;;;;;;;;;;;;;5139557;27;19962;-81
2022/09/07 02:52:35;;;;;;;;;;;;;;;;;;5139546;27;19919;-81
2022/09/07 02:55:01;;;;;;;;;;;;;;;;;;5139614;27;19916;-81
2022/09/07 02:57:29;;;;;;;;;;;;;;;;;;5140527;27;19916;-81
2022/09/07 02:59:59;;;;;;;;;;;;;;;;;;5140159;27;20345;-81
2022/09/07 03:02:27;;;;;;;;;;;;;;;;;;5121627;27;20010;-82
2022/09/07 03:04:55;;;;;;;;;;;;;;;;;;5140777;27;19916;-82
2022/09/07 03:07:50;;;;;;;;;;;;;;;;;;5151451;27;19907;-82
2022/09/07 03:10:15;;;;;;;;;;;;;;;;;;5138823;27;19937;-83
2022/09/07 03:12:43;;;;;;;;;;;;;;;;;;5142470;27;19921;-82
2022/09/07 03:15:09;;;;;;;;;;;;;;;;;;5143041;27;19968;-81
2022/09/07 03:17:35;;;;;;;;;;;;;;;;;;5142190;27;19919;-81
2022/09/07 03:20:00;;;;;;;;;;;;;;;;;;5127175;27;20309;-81
2022/09/07 03:22:27;;;;;;;;;;;;;;;;;;5138719;27;19958;-80
2022/09/07 03:24:52;;;;;;;;;;;;;;;;;;5138405;27;20001;-81
2022/09/07 03:27:17;;;;;;;;;;;;;;;;;;5138590;27;20356;-81
2022/09/07 03:29:43;;;;;;;;;;;;;;;;;;5138604;27;19965;-81
2022/09/07 03:32:08;;;;;;;;;;;;;;;;;;5138502;27;20015;-81
2022/09/07 03:34:35;;;;;;;;;;;;;;;;;;5138790;27;20320;-80
2022/09/07 03:37:00;;;;;;;;;;;;;;;;;;5138354;27;19915;-81
2022/09/07 03:39:25;;;;;;;;;;;;;;;;;;5138148;27;20395;-81
2022/09/07 03:41:51;;;;;;;;;;;;;;;;;;5120242;27;19915;-81
2022/09/07 03:44:16;;;;;;;;;;;;;;;;;;5138323;27;19915;-80
2022/09/07 03:46:43;;;;;;;;;;;;;;;;;;5102695;27;19921;-81
2022/09/07 03:49:08;;;;;;;;;;;;;;;;;;5138065;27;19915;-81
2022/09/07 03:51:33;;;;;;;;;;;;;;;;;;5137951;27;20006;-81
2022/09/07 03:53:59;;;;;;;;;;;;;;;;;;5119586;27;19915;-81
2022/09/07 03:56:24;;;;;;;;;;;;;;;;;;5137853;27;20632;-80
2022/09/07 03:58:50;;;;;;;;;;;;;;;;;;5118222;27;19915;-81
2022/09/07 04:01:19;;;;;;;;;;;;;;;;;;5137664;27;20363;-80
2022/09/07 04:03:45;;;;;;;;;;;;;;;;;;5119450;27;20298;-81
2022/09/07 04:06:10;;;;;;;;;;;;;;;;;;5138094;27;19921;-81
2022/09/07 04:08:36;;;;;;;;;;;;;;;;;;5119461;27;20009;-81
2022/09/07 04:11:02;;;;;;;;;;;;;;;;;;5119369;27;19915;-81
2022/09/07 04:13:27;;;;;;;;;;;;;;;;;;5119267;27;19912;-81
2022/09/07 04:15:53;;;;;;;;;;;;;;;;;;5119217;27;19922;-81
2022/09/07 04:18:18;;;;;;;;;;;;;;;;;;5137454;27;20536;-81
2022/09/07 04:20:43;;;;;;;;;;;;;;;;;;5118902;27;19922;-80
2022/09/07 04:23:09;;;;;;;;;;;;;;;;;;5137427;27;19915;-81
2022/09/07 04:25:34;;;;;;;;;;;;;;;;;;5137666;27;19915;-80
2022/09/07 04:28:00;;;;;;;;;;;;;;;;;;5137367;27;19921;-81
2022/09/07 04:30:25;;;;;;;;;;;;;;;;;;5119216;27;20251;-80
2022/09/07 04:32:50;;;;;;;;;;;;;;;;;;5137190;27;19916;-81
2022/09/07 04:35:16;;;;;;;;;;;;;;;;;;5136965;27;19961;-80
2022/09/07 04:37:41;;;;;;;;;;;;;;;;;;5137079;27;19924;-81
2022/09/07 04:40:07;;;;;;;;;;;;;;;;;;5137054;27;19915;-81
2022/09/07 04:42:32;;;;;;;;;;;;;;;;;;5118691;27;19915;-81
2022/09/07 04:44:57;;;;;;;;;;;;;;;;;;5136980;27;19915;-81
2022/09/07 04:47:23;;;;;;;;;;;;;;;;;;5136862;27;19915;-81
2022/09/07 04:49:51;;;;;;;;;;;;;;;;;;5136609;27;20020;-81
2022/09/07 04:52:16;;;;;;;;;;;;;;;;;;5136741;27;19969;-81
2022/09/07 04:54:42;;;;;;;;;;;;;;;;;;5136800;27;20341;-81
2022/09/07 04:57:08;;;;;;;;;;;;;;;;;;5136660;27;19915;-81
2022/09/07 04:59:33;;;;;;;;;;;;;;;;;;5118367;27;19915;-82
2022/09/07 05:01:59;;;;;;;;;;;;;;;;;;5136497;27;20340;-81
2022/09/07 05:04:24;;;;;;;;;;;;;;;;;;5136295;27;19922;-81
2022/09/07 05:06:52;;;;;;;;;;;;;;;;;;5136599;27;20205;-80
2022/09/07 05:09:17;;;;;;;;;;;;;;;;;;5137190;27;19915;-80
2022/09/07 05:11:42;;;;;;;;;;;;;;;;;;5136459;27;19915;-80
2022/09/07 05:14:08;;;;;;;;;;;;;;;;;;5136849;27;19948;-81
2022/09/07 05:16:33;;;;;;;;;;;;;;;;;;5118260;27;20355;-81
2022/09/07 05:19:00;;;;;;;;;;;;;;;;;;5118125;27;20448;-81
2022/09/07 05:21:29;;;;;;;;;;;;;;;;;;5118320;27;19915;-81
2022/09/07 05:23:55;;;;;;;;;;;;;;;;;;5118225;27;19947;-81
2022/09/07 05:26:21;;;;;;;;;;;;;;;;;;5101503;27;20367;-80
2022/09/07 05:28:46;;;;;;;;;;;;;;;;;;5123513;27;19916;-80
2022/09/07 05:31:12;;;;;;;;;;;;;;;;;;5118084;27;19912;-81
2022/09/07 05:33:38;;;;;;;;;;;;;;;;;;5118170;27;20006;-81
2022/09/07 05:36:03;;;;;;;;;;;;;;;;;;5136514;27;20379;-80
2022/09/07 05:38:29;;;;;;;;;;;;;;;;;;5117953;27;19958;-80
2022/09/07 05:40:54;;;;;;;;;;;;;;;;;;5136402;27;19944;-81
2022/09/07 05:43:20;;;;;;;;;;;;;;;;;;5138071;27;19964;-80
2022/09/07 05:45:46;;;;;;;;;;;;;;;;;;5103091;27;19954;-81
2022/09/07 05:48:11;;;;;;;;;;;;;;;;;;5136206;27;20240;-79
2022/09/07 05:50:36;;;;;;;;;;;;;;;;;;5136065;27;20324;-80
2022/09/07 05:53:02;;;;;;;;;;;;;;;;;;5136024;27;19915;-80
2022/09/07 05:55:27;;;;;;;;;;;;;;;;;;5135085;27;19916;-80
2022/09/07 05:57:53;;;;;;;;;;;;;;;;;;5135693;27;20382;-82
2022/09/07 06:00:20;;;;;;;;;;;;;;;;;;5117746;27;19920;-82
2022/09/07 06:02:45;;;;;;;;;;;;;;;;;;5135434;27;19931;-81
2022/09/07 06:05:11;;;;;;;;;;;;;;;;;;5136179;27;19919;-81
2022/09/07 06:07:36;;;;;;;;;;;;;;;;;;5136038;27;19979;-82
2022/09/07 06:10:02;;;;;;;;;;;;;;;;;;5119286;27;20300;-83
2022/09/07 06:12:28;;;;;;;;;;;;;;;;;;5118453;27;19923;-83
2022/09/07 06:14:54;;;;;;;;;;;;;;;;;;5117632;27;19925;-83
2022/09/07 06:17:19;;;;;;;;;;;;;;;;;;5116997;27;19998;-80
2022/09/07 06:19:44;;;;;;;;;;;;;;;;;;5136926;27;19923;-81
2022/09/07 06:22:10;;;;;;;;;;;;;;;;;;5135521;27;19916;-80
2022/09/07 06:24:35;;;;;;;;;;;;;;;;;;5136150;27;19919;-78
2022/09/07 06:27:01;;;;;;;;;;;;;;;;;;5135714;27;19916;-79
2022/09/07 06:29:27;;;;;;;;;;;;;;;;;;5135742;28;19962;-80
2022/09/07 06:31:52;;;;;;;;;;;;;;;;;;5135887;28;19954;-81
2022/09/07 06:34:18;;;;;;;;;;;;;;;;;;5136854;28;20010;-82
2022/09/07 06:36:43;;;;;;;;;;;;;;;;;;5135374;28;19915;-81
2022/09/07 06:39:09;;;;;;;;;;;;;;;;;;5136522;28;19922;-81
2022/09/07 06:41:34;;;;;;;;;;;;;;;;;;5136084;28;20272;-80
2022/09/07 06:43:59;;;;;;;;;;;;;;;;;;5135930;28;19922;-81
2022/09/07 06:46:25;;;;;;;;;;;;;;;;;;5135900;28;20217;-81
2022/09/07 06:48:53;;;;;;;;;;;;;;;;;;5135735;28;19954;-81
2022/09/07 06:51:19;;;;;;;;;;;;;;;;;;5135530;28;19916;-80
2022/09/07 06:53:44;;;;;;;;;;;;;;;;;;5117620;28;19916;-81
2022/09/07 06:56:11;;;;;;;;;;;;;;;;;;5117023;28;19915;-81
2022/09/07 06:58:36;;;;;;;;;;;;;;;;;;5117398;28;19965;-80
2022/09/07 07:01:06;;;;;;;;;;;;;;;;;;5135146;28;19923;-82
2022/09/07 07:03:32;;;;;;;;;;;;;;;;;;5117029;28;20007;-81
2022/09/07 07:05:57;;;;;;;;;;;;;;;;;;5117329;28;20364;-80
2022/09/07 07:08:23;;;;;;;;;;;;;;;;;;5135652;28;19916;-81
2022/09/07 07:10:48;;;;;;;;;;;;;;;;;;5117583;28;19922;-81
2022/09/07 07:13:14;;;;;;;;;;;;;;;;;;5135565;28;19912;-81
2022/09/07 07:15:39;;;;;;;;;;;;;;;;;;5116682;28;19947;-82
2022/09/07 07:18:05;;;;;;;;;;;;;;;;;;5135093;28;19919;-81
2022/09/07 07:20:30;;;;;;;;;;;;;;;;;;5136561;28;20310;-81
2022/09/07 07:22:55;;;;;;;;;;;;;;;;;;5135541;28;19916;-81
2022/09/07 07:25:21;;;;;;;;;;;;;;;;;;5116754;28;20005;-80
2022/09/07 07:27:46;;;;;;;;;;;;;;;;;;5135216;28;19916;-82
2022/09/07 07:30:12;;;;;;;;;;;;;;;;;;5135530;28;19916;-82
2022/09/07 07:32:37;;;;;;;;;;;;;;;;;;5135309;27;19998;-82
2022/09/07 07:35:03;;;;;;;;;;;;;;;;;;5138983;27;19916;-82
2022/09/07 07:37:28;;;;;;;;;;;;;;;;;;5120462;27;20418;-82
2022/09/07 07:39:54;;;;;;;;;;;;;;;;;;5139011;27;19927;-82
2022/09/07 07:42:19;;;;;;;;;;;;;;;;;;5139022;27;19922;-82
2022/09/07 07:44:44;;;;;;;;;;;;;;;;;;5138828;27;19916;-83
2022/09/07 07:47:09;;;;;;;;;;;;;;;;;;5138766;27;19915;-82
2022/09/07 07:49:35;;;;;;;;;;;;;;;;;;5138692;27;19972;-80
2022/09/07 07:52:00;;;;;;;;;;;;;;;;;;5138946;27;19925;-82
2022/09/07 07:54:26;;;;;;;;;;;;;;;;;;5138935;27;19916;-83
2022/09/07 07:56:52;;;;;;;;;;;;;;;;;;5138802;27;19916;-82
2022/09/07 07:59:17;;;;;;;;;;;;;;;;;;5138730;27;19916;-81
2022/09/07 08:01:42;;;;;;;;;;;;;;;;;;5138277;27;19940;-81
2022/09/07 08:04:08;;;;;;;;;;;;;;;;;;5138588;27;19922;-81
2022/09/07 08:06:33;;;;;;;;;;;;;;;;;;5139093;27;19951;-81
2022/09/07 08:08:58;;;;;;;;;;;;;;;;;;5120282;27;20316;-80
2022/09/07 08:11:24;;;;;;;;;;;;;;;;;;5138303;27;19919;-80
2022/09/07 08:13:50;;;;;;;;;;;;;;;;;;5138192;27;19915;-79
2022/09/07 08:16:16;;;;;;;;;;;;;;;;;;5138299;27;20228;-80
2022/09/07 08:18:42;;;;;;;;;;;;;;;;;;5138620;27;19919;-83
2022/09/07 08:21:09;;;;;;;;;;;;;;;;;;5138318;27;20313;-79
2022/09/07 08:23:34;;;;;;;;;;;;;;;;;;5138313;27;20391;-81
2022/09/07 08:26:00;;;;;;;;;;;;;;;;;;5138061;27;19923;-80
2022/09/07 08:28:26;;;;;;;;;;;;;;;;;;5137668;27;20330;-80
2022/09/07 08:30:51;;;;;;;;;;;;;;;;;;5138983;27;19993;-78
2022/09/07 08:33:16;;;;;;;;;;;;;;;;;;5137879;27;19972;-79
2022/09/07 08:35:42;;;;;;;;;;;;;;;;;;5138642;27;19951;-80
2022/09/07 08:38:07;;;;;;;;;;;;;;;;;;5137169;27;19915;-79
2022/09/07 08:40:34;;;;;;;;;;;;;;;;;;5137371;27;19955;-81
2022/09/07 08:43:26;;;;;;;;;;;;;;;;;;5118830;27;20320;-80
2022/09/07 08:45:52;;;;;;;;;;;;;;;;;;5131405;27;19919;-80
2022/09/07 08:48:19;;;;;;;;;;;;;;;;;;5118435;27;19973;-81
2022/09/07 08:50:52;;;;;;;;;;;;;;;;;;5118209;27;20577;-80
2022/09/07 08:53:18;;;;;;;;;;;;;;;;;;5135771;27;19915;-80
2022/09/07 08:55:50;;;;;;;;;;;;;;;;;;5135906;27;19971;-80
2022/09/07 08:58:26;;;;;;;;;;;;;;;;;;5117420;27;19965;-82
2022/09/07 09:00:51;;;;;;;;;;;;;;;;;;5136107;27;19996;-81
2022/09/07 09:03:20;;;;;;;;;;;;;;;;;;5135693;27;20328;-81
2022/09/07 09:05:45;;;;;;;;;;;;;;;;;;5117423;27;20014;-80
2022/09/07 09:08:17;;;;;;;;;;;;;;;;;;5119919;27;19955;-81
2022/09/07 09:10:46;;;;;;;;;;;;;;;;;;5101148;27;19915;-81
2022/09/07 09:13:18;;;;;;;;;;;;;;;;;;5137818;27;19972;-80
2022/09/07 09:15:57;;;;;;;;;;;;;;;;;;5118453;27;19916;-80
2022/09/07 09:18:28;;;;;;;;;;;;;;;;;;5119017;27;19965;-83
2022/09/07 09:20:54;;;;;;;;;;;;;;;;;;5136681;27;19919;-79
2022/09/07 09:23:22;;;;;;;;;;;;;;;;;;5136787;27;20370;-80
2022/09/07 09:25:57;;;;;;;;;;;;;;;;;;5118135;27;19972;-79
2022/09/07 09:28:23;;;;;;;;;;;;;;;;;;5136453;27;19923;-79
2022/09/07 09:30:49;;;;;;;;;;;;;;;;;;5118821;27;19915;-80
2022/09/07 09:33:27;;;;;;;;;;;;;;;;;;5136361;27;19916;-81
2022/09/07 09:35:54;;;;;;;;;;;;;;;;;;5136115;27;19972;-80
2022/09/07 09:38:33;;;;;;;;;;;;;;;;;;5118373;27;19996;-79
2022/09/07 09:41:16;;;;;;;;;;;;;;;;;;5136517;27;19915;-80
2022/09/07 09:43:51;;;;;;;;;;;;;;;;;;5132888;27;19918;-79
2022/09/07 09:46:24;;;;;;;;;;;;;;;;;;5136436;27;19919;-80
2022/09/07 09:48:56;;;;;;;;;;;;;;;;;;5117961;27;19915;-80
2022/09/07 09:51:23;;;;;;;;;;;;;;;;;;5117854;27;20248;-80
2022/09/07 09:53:52;;;;;;;;;;;;;;;;;;5117934;27;20317;-80
2022/09/07 09:56:17;;;;;;;;;;;;;;;;;;5136432;27;20237;-78
2022/09/07 09:58:46;;;;;;;;;;;;;;;;;;5117783;27;19943;-78
2022/09/07 10:01:24;;;;;;;;;;;;;;;;;;5136848;27;19926;-80
2022/09/07 10:03:49;;;;;;;;;;;;;;;;;;5117855;27;19919;-80
2022/09/07 10:06:15;;;;;;;;;;;;;;;;;;5135716;27;19923;-79
2022/09/07 10:08:57;;;;;;;;;;;;;;;;;;5117144;27;20005;-77
2022/09/07 10:11:38;;;;;;;;;;;;;;;;;;5135584;27;19964;-78
2022/09/07 10:14:04;;;;;;;;;;;;;;;;;;5117480;27;19916;-80
2022/09/07 10:16:37;;;;;;;;;;;;;;;;;;5117647;27;19922;-78
2022/09/07 10:19:02;;;;;;;;;;;;;;;;;;5117253;28;19916;-79
2022/09/07 10:21:31;;;;;;;;;;;;;;;;;;5135630;27;19915;-81
2022/09/07 10:23:59;;;;;;;;;;;;;;;;;;5135387;27;20313;-80
2022/09/07 10:26:25;;;;;;;;;;;;;;;;;;5117277;27;19980;-77
2022/09/07 10:29:04;;;;;;;;;;;;;;;;;;5135696;28;19919;-77
2022/09/07 10:31:30;;;;;;;;;;;;;;;;;;5117264;28;19935;-79
2022/09/07 10:34:08;;;;;;;;;;;;;;;;;;5135650;28;20010;-78
2022/09/07 10:36:37;;;;;;;;;;;;;;;;;;5135893;28;19950;-79
2022/09/07 10:39:04;;;;;;;;;;;;;;;;;;5135222;28;19959;-82
2022/09/07 10:41:42;;;;;;;;;;;;;;;;;;5135868;28;19916;-78
2022/09/07 10:44:08;;;;;;;;;;;;;;;;;;5135595;28;19947;-79
2022/09/07 10:46:53;;;;;;;;;;;;;;;;;;5117534;28;19923;-80
2022/09/07 10:49:48;;;;;;;;;;;;;;;;;;5135608;28;19923;-81
2022/09/07 10:52:25;;;;;;;;;;;;;;;;;;5112764;28;20006;-79
2022/09/07 10:55:15;;;;;;;;;;;;;;;;;;5135740;28;19915;-80
2022/09/07 10:58:07;;;;;;;;;;;;;;;;;;5122554;28;19915;-79
2022/09/07 11:00:36;;;;;;;;;;;;;;;;;;5096156;28;19915;-79
2022/09/07 11:03:10;;;;;;;;;;;;;;;;;;5116819;28;19926;-79
2022/09/07 11:05:35;;;;;;;;;;;;;;;;;;5117159;28;19923;-80
2022/09/07 11:08:21;;;;;;;;;;;;;;;;;;5136121;27;19912;-79
2022/09/07 11:10:49;;;;;;;;;;;;;;;;;;5087079;27;20308;-80
2022/09/07 11:13:15;;;;;;;;;;;;;;;;;;5139243;27;19911;-79
2022/09/07 11:15:45;;;;;;;;;;;;;;;;;;5139339;27;19919;-79
2022/09/07 11:18:16;;;;;;;;;;;;;;;;;;5120742;27;19951;-80
2022/09/07 11:20:55;;;;;;;;;;;;;;;;;;5121032;27;20332;-79
2022/09/07 11:23:26;;;;;;;;;;;;;;;;;;5138736;27;19960;-79
2022/09/07 11:26:01;;;;;;;;;;;;;;;;;;5139012;27;19916;-80
2022/09/07 11:28:34;;;;;;;;;;;;;;;;;;5139383;27;20205;-78
2022/09/07 11:31:01;;;;;;;;;;;;;;;;;;5120783;27;19937;-78
2022/09/07 11:33:34;;;;;;;;;;;;;;;;;;5120537;27;19911;-80
2022/09/07 11:36:25;;;;;;;;;;;;;;;;;;5120544;27;20301;-78
2022/09/07 11:38:57;;;;;;;;;;;;;;;;;;5133625;27;19915;-79
2022/09/07 11:41:23;;;;;;;;;;;;;;;;;;5120443;27;19922;-82
2022/09/07 11:44:10;;;;;;;;;;;;;;;;;;5121241;27;19912;-83
2022/09/07 11:47:05;;;;;;;;;;;;;;;;;;5088694;27;19916;-86
2022/09/07 11:49:30;;;;;;;;;;;;;;;;;;5117097;27;19911;-84
2022/09/07 11:51:56;;;;;;;;;;;;;;;;;;5140086;27;20248;-85
2022/09/07 11:54:25;;;;;;;;;;;;;;;;;;5141217;27;20006;-84
2022/09/07 11:56:53;;;;;;;;;;;;;;;;;;5140445;27;19912;-85
2022/09/07 11:59:19;;;;;;;;;;;;;;;;;;5140443;27;19916;-86
2022/09/07 12:01:47;;;;;;;;;;;;;;;;;;5139610;27;19982;-84
2022/09/07 12:04:31;;;;;;;;;;;;;;;;;;5120528;27;19922;-84
2022/09/07 12:07:05;;;;;;;;;;;;;;;;;;5139372;27;19915;-82
2022/09/07 12:09:49;;;;;;;;;;;;;;;;;;5138362;27;19938;-81
2022/09/07 12:12:18;;;;;;;;;;;;;;;;;;5138245;27;20380;-83
2022/09/07 12:15:02;;;;;;;;;;;;;;;;;;5138216;27;20257;-86
2022/09/07 12:17:40;;;;;;;;;;;;;;;;;;5143553;27;19943;-89
2022/09/07 12:20:08;;;;;;;;;;;;;;;;;;5119471;27;19915;-87
2022/09/07 12:22:34;;;;;;;;;;;;;;;;;;5138277;27;19953;-86
2022/09/07 12:25:06;;;;;;;;;;;;;;;;;;5119507;27;19915;-85
2022/09/07 12:27:31;;;;;;;;;;;;;;;;;;5119803;27;19956;-85
2022/09/07 12:29:56;;;;;;;;;;;;;;;;;;5138306;27;19964;-81
2022/09/07 12:32:40;;;;;;;;;;;;;;;;;;5137566;27;19972;-83
2022/09/07 12:35:26;;;;;;;;;;;;;;;;;;5138428;27;19980;-85
2022/09/07 12:37:51;;;;;;;;;;;;;;;;;;5142931;27;19915;-86
2022/09/07 12:40:26;;;;;;;;;;;;;;;;;;5137753;27;19916;-82
2022/09/07 12:43:15;;;;;;;;;;;;;;;;;;5138019;27;19958;-82
2022/09/07 12:45:41;;;;;;;;;;;;;;;;;;5089269;27;19923;-82
2022/09/07 12:48:06;;;;;;;;;;;;;;;;;;5137320;27;19912;-78
2022/09/07 12:50:35;;;;;;;;;;;;;;;;;;5137529;27;20290;-81
2022/09/07 12:53:20;;;;;;;;;;;;;;;;;;5119318;27;19912;-81
2022/09/07 12:55:48;;;;;;;;;;;;;;;;;;5137003;27;19919;-81
2022/09/07 12:58:13;;;;;;;;;;;;;;;;;;5136711;27;19966;-81
2022/09/07 13:00:42;;;;;;;;;;;;;;;;;;5118820;27;19951;-81
2022/09/07 13:03:26;;;;;;;;;;;;;;;;;;5136273;27;19919;-83
2022/09/07 13:06:09;;;;;;;;;;;;;;;;;;5136897;27;19915;-84
2022/09/07 13:09:10;;;;;;;;;;;;;;;;;;5136714;27;20323;-81
2022/09/07 13:11:37;;;;;;;;;;;;;;;;;;5033605;28;20055;-82
2022/09/07 13:14:06;;;;;;;;;;;;;;;;;;5098595;27;19963;-81
2022/09/07 13:16:31;;;;;;;;;;;;;;;;;;5118312;27;19916;-82
2022/09/07 13:18:57;;;;;;;;;;;;;;;;;;5136348;27;19923;-82
2022/09/07 13:21:30;;;;;;;;;;;;;;;;;;5137120;27;19915;-85
2022/09/07 13:24:17;;;;;;;;;;;;;;;;;;5118041;27;19918;-81
2022/09/07 13:27:01;;;;;;;;;;;;;;;;;;5136407;27;20420;-80
2022/09/07 13:29:29;;;;;;;;;;;;;;;;;;5136449;27;19955;-83
2022/09/07 13:32:02;;;;;;;;;;;;;;;;;;5136058;27;20008;-80
2022/09/07 13:34:29;;;;;;;;;;;;;;;;;;5117825;27;20411;-81
2022/09/07 13:36:54;;;;;;;;;;;;;;;;;;5136151;27;19915;-81
2022/09/07 13:39:20;;;;;;;;;;;;;;;;;;5118205;27;20320;-82
2022/09/07 13:41:47;;;;;;;;;;;;;;;;;;5117852;27;19916;-83
2022/09/07 13:44:20;;;;;;;;;;;;;;;;;;5117910;27;19922;-83
2022/09/07 13:46:45;;;;;;;;;;;;;;;;;;5136902;27;19922;-82
2022/09/07 13:49:20;;;;;;;;;;;;;;;;;;5138181;27;19915;-79
2022/09/07 13:51:51;;;;;;;;;;;;;;;;;;5119125;27;19919;-79
2022/09/07 13:54:35;;;;;;;;;;;;;;;;;;5119226;27;19922;-80
2022/09/07 13:57:10;;;;;;;;;;;;;;;;;;5140875;27;19922;-78
2022/09/07 13:59:35;;;;;;;;;;;;;;;;;;5141527;27;19918;-78
2022/09/07 14:02:01;;;;;;;;;;;;;;;;;;5141050;27;19912;-77
2022/09/07 14:04:32;;;;;;;;;;;;;;;;;;5159372;27;19941;-79
2022/09/07 14:07:05;;;;;;;;;;;;;;;;;;5159003;27;19919;-83
2022/09/07 14:09:32;;;;;;;;;;;;;;;;;;5113911;27;19927;-80
2022/09/07 14:11:58;;;;;;;;;;;;;;;;;;5135634;27;20349;-81
2022/09/07 14:14:26;;;;;;;;;;;;;;;;;;5135322;27;19923;-78
2022/09/07 14:16:58;;;;;;;;;;;;;;;;;;5135495;27;19971;-78
2022/09/07 14:19:24;;;;;;;;;;;;;;;;;;5118236;28;19915;-79
2022/09/07 14:21:59;;;;;;;;;;;;;;;;;;5120177;27;19916;-79
2022/09/07 14:24:35;;;;;;;;;;;;;;;;;;5135585;27;20002;-79
2022/09/07 14:27:00;;;;;;;;;;;;;;;;;;5116845;27;19923;-82
2022/09/07 14:29:28;;;;;;;;;;;;;;;;;;5135409;27;20214;-81
2022/09/07 14:31:54;;;;;;;;;;;;;;;;;;5116950;28;19919;-81
2022/09/07 14:34:20;;;;;;;;;;;;;;;;;;5116971;28;19938;-81
2022/09/07 14:36:45;;;;;;;;;;;;;;;;;;5117185;28;19957;-82
2022/09/07 14:39:11;;;;;;;;;;;;;;;;;;5116736;28;19962;-81
2022/09/07 14:41:37;;;;;;;;;;;;;;;;;;5135100;28;19920;-81
2022/09/07 14:44:02;;;;;;;;;;;;;;;;;;5119593;27;19915;-81
2022/09/07 14:46:34;;;;;;;;;;;;;;;;;;5120760;27;19912;-83
2022/09/07 14:49:20;;;;;;;;;;;;;;;;;;5121415;27;19944;-84
2022/09/07 14:51:45;;;;;;;;;;;;;;;;;;5138751;27;19911;-83
2022/09/07 14:54:21;;;;;;;;;;;;;;;;;;5120982;27;20359;-82
2022/09/07 14:57:03;;;;;;;;;;;;;;;;;;5120706;27;19998;-81
2022/09/07 14:59:31;;;;;;;;;;;;;;;;;;5138832;27;19916;-81
2022/09/07 15:02:15;;;;;;;;;;;;;;;;;;5138951;27;19926;-82
2022/09/07 15:04:40;;;;;;;;;;;;;;;;;;5139055;27;19916;-82
2022/09/07 15:07:25;;;;;;;;;;;;;;;;;;5139011;27;19915;-81
2022/09/07 15:09:50;;;;;;;;;;;;;;;;;;5120512;27;19915;-82
2022/09/07 15:12:17;;;;;;;;;;;;;;;;;;5139356;27;20325;-82
2022/09/07 15:14:42;;;;;;;;;;;;;;;;;;5120425;27;19922;-83
2022/09/07 15:17:27;;;;;;;;;;;;;;;;;;5138842;27;19933;-82
2022/09/07 15:19:53;;;;;;;;;;;;;;;;;;5120812;27;19919;-83
2022/09/07 15:22:18;;;;;;;;;;;;;;;;;;5138942;27;20367;-82
2022/09/07 15:24:47;;;;;;;;;;;;;;;;;;5120413;27;19915;-82
2022/09/07 15:27:19;;;;;;;;;;;;;;;;;;5138577;27;19922;-82
2022/09/07 15:29:44;;;;;;;;;;;;;;;;;;5138503;27;20317;-84
2022/09/07 15:32:09;;;;;;;;;;;;;;;;;;5120142;27;19916;-83
2022/09/07 15:34:35;;;;;;;;;;;;;;;;;;5102960;27;21223;-83
2022/09/07 15:37:00;;;;;;;;;;;;;;;;;;5138380;27;19915;-83
2022/09/07 15:39:29;;;;;;;;;;;;;;;;;;5138585;27;19967;-82
2022/09/07 15:41:54;;;;;;;;;;;;;;;;;;5138298;27;19927;-83
2022/09/07 15:44:22;;;;;;;;;;;;;;;;;;5102570;27;19916;-84
2022/09/07 15:46:48;;;;;;;;;;;;;;;;;;5120431;27;19912;-82
2022/09/07 15:49:13;;;;;;;;;;;;;;;;;;5138121;27;19922;-83
2022/09/07 15:51:44;;;;;;;;;;;;;;;;;;5119812;27;19912;-83
2022/09/07 15:54:10;;;;;;;;;;;;;;;;;;5119922;27;19922;-83
2022/09/07 15:56:35;;;;;;;;;;;;;;;;;;5119600;27;19916;-84
2022/09/07 15:59:01;;;;;;;;;;;;;;;;;;5138102;27;19966;-82
2022/09/07 16:01:26;;;;;;;;;;;;;;;;;;5137770;27;20325;-82
2022/09/07 16:03:55;;;;;;;;;;;;;;;;;;5138209;27;19915;-83
2022/09/07 16:06:20;;;;;;;;;;;;;;;;;;5119801;27;19951;-83
2022/09/07 16:08:46;;;;;;;;;;;;;;;;;;5120364;27;19954;-83
2022/09/07 16:11:13;;;;;;;;;;;;;;;;;;5137474;27;19916;-83
2022/09/07 16:13:38;;;;;;;;;;;;;;;;;;5119542;27;19915;-83
2022/09/07 16:16:04;;;;;;;;;;;;;;;;;;5119368;27;20348;-83
2022/09/07 16:18:29;;;;;;;;;;;;;;;;;;5137477;27;19922;-83
2022/09/07 16:20:54;;;;;;;;;;;;;;;;;;5137898;27;20579;-83
2022/09/07 16:23:20;;;;;;;;;;;;;;;;;;5137510;27;19912;-83
2022/09/07 16:25:55;;;;;;;;;;;;;;;;;;5137366;27;19922;-83
2022/09/07 16:28:21;;;;;;;;;;;;;;;;;;5137687;27;20019;-83
2022/09/07 16:30:46;;;;;;;;;;;;;;;;;;5137599;27;19962;-83
2022/09/07 16:33:11;;;;;;;;;;;;;;;;;;5137375;27;19958;-83
2022/09/07 16:35:37;;;;;;;;;;;;;;;;;;5137301;27;19955;-83
2022/09/07 16:38:03;;;;;;;;;;;;;;;;;;5118958;27;19962;-83
2022/09/07 16:40:29;;;;;;;;;;;;;;;;;;5137119;27;20256;-82
2022/09/07 16:42:54;;;;;;;;;;;;;;;;;;5137217;27;19958;-83
2022/09/07 16:45:19;;;;;;;;;;;;;;;;;;5137176;27;19922;-84
2022/09/07 16:47:45;;;;;;;;;;;;;;;;;;5118651;27;19915;-83
2022/09/07 16:50:10;;;;;;;;;;;;;;;;;;5136980;27;19980;-83
2022/09/07 16:52:35;;;;;;;;;;;;;;;;;;5137418;27;19915;-83
2022/09/07 16:55:01;;;;;;;;;;;;;;;;;;5138013;27;19923;-83
2022/09/07 16:57:26;;;;;;;;;;;;;;;;;;5136922;27;19915;-83